Time,TemperatureF,DewpointF,PressureIn,WindDirection,WindDirectionDegrees,WindSpeedMPH,WindSpeedGustMPH,Humidity,HourlyPrecipIn,Conditions,Clouds,dailyrainin,SoftwareType,DateUTC
2013-02-07 05:22:00,40.8,40.3,30.21,NNW,338,0.0,0.0,98,0.00,,---,0.00,VWS V14.01,2013-02-07 13:22:00,
2013-02-07 05:24:00,41.0,40.5,30.21,NNW,338,0.0,0.0,98,0.00,,---,0.00,VWS V14.01,2013-02-07 13:24:00,
2013-02-07 05:29:00,41.0,40.5,30.21,NNW,338,0.0,0.0,98,0.00,,---,0.00,VWS V14.01,2013-02-07 13:29:00,
2013-02-07 05:34:00,41.2,40.7,30.21,NNW,338,0.0,0.0,98,0.00,,---,0.00,VWS V14.01,2013-02-07 13:34:00,
2013-02-07 05:39:00,41.2,40.7,30.18,NNW,338,0.0,0.0,98,0.00,,---,0.00,VWS V14.01,2013-02-07 13:39:00,
2013-02-07 05:44:00,41.2,40.4,30.18,NNW,338,0.0,0.0,97,0.00,,---,0.00,VWS V14.01,2013-02-07 13:44:00,
2013-02-07 05:46:00,41.2,40.4,30.18,NNW,338,0.0,0.0,97,0.00,,---,0.00,VWS V14.01,2013-02-07 13:46:00,
2013-02-07 05:51:00,41.2,40.4,30.18,NNW,338,0.0,0.0,97,0.00,,---,0.00,VWS V14.01,2013-02-07 13:51:00,
2013-02-07 05:56:00,41.0,40.2,30.18,NNW,338,0.0,0.0,97,0.00,,---,0.00,VWS V14.01,2013-02-07 13:56:00,
2013-02-07 06:01:00,40.8,40.0,30.18,NNW,338,0.0,0.0,97,0.00,,---,0.00,VWS V14.01,2013-02-07 14:01:00,
2013-02-07 06:04:00,40.8,40.0,30.18,NNW,338,0.0,0.0,97,0.00,,---,0.00,VWS V14.01,2013-02-07 14:04:00,
2013-02-07 06:09:00,40.8,40.0,30.18,NNW,338,0.0,0.0,97,0.00,,---,0.00,VWS V14.01,2013-02-07 14:09:00,
2013-02-07 06:14:00,40.8,40.0,30.18,NNW,338,0.0,0.0,97,0.00,,---,0.00,VWS V14.01,2013-02-07 14:14:00,
2013-02-07 06:19:00,40.8,40.0,30.18,NNW,338,0.0,0.0,97,0.00,,---,0.00,VWS V14.01,2013-02-07 14:19:00,
2013-02-07 06:24:00,40.6,39.9,30.18,NNW,338,0.0,0.0,97,0.00,,---,0.00,VWS V14.01,2013-02-07 14:24:00,
2013-02-07 06:29:00,40.5,39.7,30.18,NNW,338,0.0,0.0,97,0.00,,---,0.00,VWS V14.01,2013-02-07 14:29:00,
2013-02-07 06:34:00,40.5,39.7,30.18,NNW,338,0.0,0.0,97,0.00,,---,0.00,VWS V14.01,2013-02-07 14:34:00,
2013-02-07 06:39:00,40.5,39.7,30.18,NNW,338,0.0,0.0,97,0.00,,---,0.00,VWS V14.01,2013-02-07 14:39:00,
2013-02-07 06:44:00,40.6,40.1,30.18,NNW,338,0.0,0.0,98,0.00,,---,0.00,VWS V14.01,2013-02-07 14:44:00,
2013-02-07 06:49:00,40.6,40.1,30.18,NNW,338,0.0,0.0,98,0.00,,---,0.00,VWS V14.01,2013-02-07 14:49:00,
2013-02-07 06:54:00,40.6,40.1,30.15,NNW,338,0.0,0.0,98,0.00,,---,0.00,VWS V14.01,2013-02-07 14:54:00,
2013-02-07 06:59:00,40.6,40.1,30.15,NNW,338,0.0,0.0,98,0.00,,---,0.00,VWS V14.01,2013-02-07 14:59:00,
2013-02-07 07:04:00,40.5,39.7,30.15,NNW,338,0.0,0.0,97,0.00,,---,0.00,VWS V14.01,2013-02-07 15:04:00,
2013-02-07 07:10:00,40.3,39.5,30.15,NNW,338,0.0,0.0,97,0.00,,---,0.00,VWS V14.01,2013-02-07 15:10:00,
2013-02-07 07:15:00,40.5,39.7,30.15,NNW,338,0.0,0.0,97,0.00,,---,0.00,VWS V14.01,2013-02-07 15:15:00,
2013-02-07 07:21:00,40.6,40.1,30.15,NNW,338,0.0,0.0,98,0.00,,---,0.00,VWS V14.01,2013-02-07 15:21:00,
2013-02-07 07:26:00,41.0,40.5,30.15,WNW,292,0.0,0.0,98,0.00,,---,0.00,VWS V14.01,2013-02-07 15:26:00,
2013-02-07 07:32:00,41.4,40.8,30.15,WNW,292,0.0,0.0,98,0.00,,---,0.00,VWS V14.01,2013-02-07 15:32:00,
2013-02-07 07:37:00,41.5,41.0,30.15,WNW,292,0.0,0.0,98,0.00,,---,0.00,VWS V14.01,2013-02-07 15:37:00,
2013-02-07 07:42:00,41.7,41.2,30.18,NNE,22,0.0,0.0,98,0.00,,---,0.00,VWS V14.01,2013-02-07 15:42:00,
2013-02-07 07:47:00,42.3,41.7,30.18,NNE,22,0.0,0.0,98,0.00,,---,0.00,VWS V14.01,2013-02-07 15:47:00,
2013-02-07 07:52:00,42.8,42.3,30.18,NNE,22,0.0,0.0,98,0.00,,---,0.00,VWS V14.01,2013-02-07 15:52:00,
2013-02-07 07:57:00,44.1,43.5,30.18,SW,225,0.0,0.0,98,0.00,,---,0.00,VWS V14.01,2013-02-07 15:57:00,
2013-02-07 08:02:00,44.8,44.2,30.18,ESE,112,0.0,0.0,98,0.00,,---,0.00,VWS V14.01,2013-02-07 16:02:00,
2013-02-07 08:08:00,45.1,44.6,30.18,SSE,158,0.0,0.0,98,0.00,,---,0.00,VWS V14.01,2013-02-07 16:08:00,
2013-02-07 08:13:00,46.6,46.0,30.18,ESE,112,2.0,2.9,98,0.00,,---,0.00,VWS V14.01,2013-02-07 16:13:00,
2013-02-07 08:18:00,48.0,47.5,30.18,South,180,0.0,2.0,98,0.00,,---,0.00,VWS V14.01,2013-02-07 16:18:00,
2013-02-07 08:23:00,47.8,47.0,30.18,SE,135,2.2,2.2,97,0.00,,---,0.00,VWS V14.01,2013-02-07 16:23:00,
2013-02-07 08:28:00,47.5,46.1,30.18,SSE,158,2.0,2.5,95,0.00,,---,0.00,VWS V14.01,2013-02-07 16:28:00,
2013-02-07 08:33:00,47.7,46.0,30.18,SSE,158,0.0,1.3,94,0.00,,---,0.00,VWS V14.01,2013-02-07 16:33:00,
2013-02-07 08:38:00,47.7,45.5,30.18,WSW,248,0.0,2.0,92,0.00,,---,0.00,VWS V14.01,2013-02-07 16:38:00,
2013-02-07 08:44:00,47.5,43.5,30.18,SW,225,0.0,1.3,86,0.00,,---,0.00,VWS V14.01,2013-02-07 16:44:00,
2013-02-07 08:49:00,47.7,43.7,30.18,ESE,112,2.9,2.9,86,0.00,,---,0.00,VWS V14.01,2013-02-07 16:49:00,
2013-02-07 08:55:00,47.7,43.7,30.18,WSW,248,2.9,2.9,86,0.00,,---,0.00,VWS V14.01,2013-02-07 16:55:00,
2013-02-07 09:00:00,47.5,42.6,30.18,SSW,202,0.9,1.6,83,0.00,,---,0.00,VWS V14.01,2013-02-07 17:00:00,
2013-02-07 09:05:00,47.3,42.4,30.18,WSW,248,3.4,3.4,83,0.00,,---,0.00,VWS V14.01,2013-02-07 17:05:00,
2013-02-07 09:10:00,47.1,41.9,30.18,SSW,202,0.0,1.6,82,0.00,,---,0.00,VWS V14.01,2013-02-07 17:10:00,
2013-02-07 09:16:00,46.9,41.7,30.18,WSW,248,2.2,2.2,82,0.00,,---,0.00,VWS V14.01,2013-02-07 17:16:00,
2013-02-07 09:21:00,46.8,41.9,30.18,WSW,248,1.1,2.7,83,0.00,,---,0.00,VWS V14.01,2013-02-07 17:21:00,
2013-02-07 09:26:00,46.6,41.7,30.21,WNW,292,1.3,2.0,83,0.00,,---,0.00,VWS V14.01,2013-02-07 17:26:00,
2013-02-07 09:31:00,46.4,41.5,30.21,WSW,248,2.5,2.5,83,0.00,,---,0.00,VWS V14.01,2013-02-07 17:31:00,
2013-02-07 09:36:00,46.0,41.5,30.21,WSW,248,0.0,2.5,84,0.00,,---,0.00,VWS V14.01,2013-02-07 17:36:00,
2013-02-07 09:41:00,45.9,41.3,30.21,NNW,338,2.0,2.0,84,0.00,,---,0.00,VWS V14.01,2013-02-07 17:41:00,
2013-02-07 09:46:00,45.5,41.3,30.21,West,270,0.0,0.0,85,0.00,,---,0.00,VWS V14.01,2013-02-07 17:46:00,
2013-02-07 09:51:00,45.5,41.6,30.21,SSW,202,1.6,2.5,86,0.00,,---,0.00,VWS V14.01,2013-02-07 17:51:00,
2013-02-07 09:56:00,46.0,42.4,30.21,West,270,0.0,0.0,87,0.00,,---,0.00,VWS V14.01,2013-02-07 17:56:00,
2013-02-07 10:02:00,46.4,43.0,30.21,SW,225,2.0,2.5,88,0.00,,---,0.00,VWS V14.01,2013-02-07 18:02:00,
2013-02-07 10:07:00,46.8,43.7,30.21,ENE,68,2.2,2.2,89,0.00,,---,0.00,VWS V14.01,2013-02-07 18:07:00,
2013-02-07 10:12:00,47.8,45.3,30.21,NE,45,0.0,1.1,91,0.00,,---,0.00,VWS V14.01,2013-02-07 18:12:00,
2013-02-07 10:17:00,48.7,46.2,30.21,West,270,0.0,0.0,91,0.00,,---,0.00,VWS V14.01,2013-02-07 18:17:00,
2013-02-07 10:23:00,49.6,46.5,30.21,ESE,112,2.5,2.9,89,0.04,,---,0.04,VWS V14.01,2013-02-07 18:23:00,
2013-02-07 10:28:00,50.4,47.0,30.21,WSW,248,2.0,2.5,88,0.04,,---,0.04,VWS V14.01,2013-02-07 18:28:00,
2013-02-07 10:33:00,50.7,46.7,30.21,WSW,248,0.0,0.9,86,0.04,,---,0.04,VWS V14.01,2013-02-07 18:33:00,
2013-02-07 10:38:00,50.2,45.5,30.21,WSW,248,0.0,2.5,84,0.04,,---,0.04,VWS V14.01,2013-02-07 18:38:00,
2013-02-07 10:44:00,50.4,45.4,30.21,SSW,202,0.9,2.9,83,0.04,,---,0.04,VWS V14.01,2013-02-07 18:44:00,
2013-02-07 10:49:00,51.1,46.7,30.21,SSW,202,1.3,2.7,85,0.04,,---,0.04,VWS V14.01,2013-02-07 18:49:00,
2013-02-07 10:54:00,50.9,44.6,30.24,WSW,248,2.0,3.6,79,0.04,,---,0.04,VWS V14.01,2013-02-07 18:54:00,
2013-02-07 10:59:00,51.6,45.0,30.24,WSW,248,2.5,4.7,78,0.04,,---,0.04,VWS V14.01,2013-02-07 18:59:00,
2013-02-07 11:05:00,51.4,44.5,30.24,WSW,248,2.0,3.4,77,0.04,,---,0.04,VWS V14.01,2013-02-07 19:05:00,
2013-02-07 11:10:00,51.4,44.5,30.21,SSW,202,3.1,4.0,77,0.04,,---,0.04,VWS V14.01,2013-02-07 19:10:00,
2013-02-07 11:16:00,54.3,47.6,30.21,WSW,248,0.0,1.6,78,0.04,,---,0.04,VWS V14.01,2013-02-07 19:16:00,
2013-02-07 11:22:00,54.5,46.0,30.21,SE,135,2.7,2.7,73,0.04,,---,0.04,VWS V14.01,2013-02-07 19:22:00,
2013-02-07 11:28:00,54.7,45.8,30.21,ESE,112,1.6,2.0,72,0.00,,---,0.04,VWS V14.01,2013-02-07 19:28:00,
2013-02-07 11:33:00,55.9,47.1,30.21,NNE,22,0.0,2.9,72,0.00,,---,0.04,VWS V14.01,2013-02-07 19:33:00,
2013-02-07 11:38:00,56.3,46.3,30.21,SSW,202,3.8,3.8,69,0.00,,---,0.04,VWS V14.01,2013-02-07 19:38:00,
2013-02-07 11:43:00,55.8,44.2,30.21,SE,135,4.0,6.5,65,0.00,,---,0.04,VWS V14.01,2013-02-07 19:43:00,
2013-02-07 11:48:00,54.7,44.0,30.21,SW,225,2.7,3.1,67,0.00,,---,0.04,VWS V14.01,2013-02-07 19:48:00,
2013-02-07 11:54:00,55.9,43.5,30.18,SSW,202,2.5,4.9,63,0.00,,---,0.04,VWS V14.01,2013-02-07 19:54:00,
2013-02-07 11:59:00,57.6,45.5,30.18,ESE,112,1.3,1.6,64,0.00,,---,0.04,VWS V14.01,2013-02-07 19:59:00,
2013-02-07 12:04:00,59.2,45.3,30.18,West,270,4.3,4.3,60,0.00,,---,0.04,VWS V14.01,2013-02-07 20:04:00,
2013-02-07 12:09:00,59.2,44.9,30.18,SE,135,2.0,2.9,59,0.00,,---,0.04,VWS V14.01,2013-02-07 20:09:00,
2013-02-07 12:15:00,57.0,41.5,30.18,SSW,202,3.4,4.0,56,0.00,,---,0.04,VWS V14.01,2013-02-07 20:15:00,
2013-02-07 12:21:00,55.9,41.8,30.18,SW,225,1.3,3.1,59,0.00,,---,0.04,VWS V14.01,2013-02-07 20:21:00,
2013-02-07 12:26:00,58.3,43.1,30.18,SSW,202,3.4,4.9,57,0.00,,---,0.04,VWS V14.01,2013-02-07 20:26:00,
2013-02-07 12:32:00,57.0,41.0,30.18,WSW,248,2.5,4.3,55,0.00,,---,0.04,VWS V14.01,2013-02-07 20:32:00,
2013-02-07 12:37:00,59.0,42.4,30.18,SSE,158,2.5,3.6,54,0.00,,---,0.04,VWS V14.01,2013-02-07 20:37:00,
2013-02-07 12:43:00,57.0,40.6,30.18,WSW,248,2.9,4.0,54,0.00,,---,0.04,VWS V14.01,2013-02-07 20:43:00,
2013-02-07 12:48:00,58.6,42.1,30.18,SSW,202,1.3,4.3,54,0.00,,---,0.04,VWS V14.01,2013-02-07 20:48:00,
2013-02-07 12:53:00,58.5,39.9,30.18,WSW,248,4.0,5.6,50,0.00,,---,0.04,VWS V14.01,2013-02-07 20:53:00,
2013-02-07 12:58:00,59.5,39.3,30.18,SE,135,3.8,5.8,47,0.00,,---,0.04,VWS V14.01,2013-02-07 20:58:00,
2013-02-07 13:04:00,59.4,39.2,30.18,SSW,202,3.4,5.8,47,0.00,,---,0.04,VWS V14.01,2013-02-07 21:04:00,
2013-02-07 13:09:00,58.5,37.8,30.18,WSW,248,5.8,9.4,46,0.00,,---,0.04,VWS V14.01,2013-02-07 21:09:00,
2013-02-07 13:14:00,56.3,38.4,30.18,SSW,202,4.7,7.2,51,0.00,,---,0.04,VWS V14.01,2013-02-07 21:14:00,
2013-02-07 13:19:00,57.7,41.2,30.18,East,90,4.9,4.9,54,0.00,,---,0.04,VWS V14.01,2013-02-07 21:19:00,
2013-02-07 13:25:00,58.6,40.1,30.18,SW,225,1.6,3.4,50,0.00,,---,0.04,VWS V14.01,2013-02-07 21:25:00,
2013-02-07 13:31:00,57.6,39.1,30.18,WNW,292,4.9,4.9,50,0.00,,---,0.04,VWS V14.01,2013-02-07 21:31:00,
2013-02-07 13:36:00,58.5,39.9,30.18,NNE,22,2.0,3.6,50,0.00,,---,0.04,VWS V14.01,2013-02-07 21:36:00,
2013-02-07 13:42:00,62.1,42.7,30.15,SSW,202,5.8,5.8,49,0.00,,---,0.04,VWS V14.01,2013-02-07 21:42:00,
2013-02-07 13:47:00,60.4,38.4,30.15,West,270,3.8,4.0,44,0.00,,---,0.04,VWS V14.01,2013-02-07 21:47:00,
2013-02-07 13:53:00,61.0,37.8,30.15,NNW,338,1.6,2.7,42,0.00,,---,0.04,VWS V14.01,2013-02-07 21:53:00,
2013-02-07 13:58:00,60.3,37.7,30.15,NW,315,1.6,3.8,43,0.00,,---,0.04,VWS V14.01,2013-02-07 21:58:00,
2013-02-07 14:04:00,62.1,40.5,30.15,North,0,2.0,2.2,45,0.00,,---,0.04,VWS V14.01,2013-02-07 22:04:00,
2013-02-07 14:09:00,63.3,38.0,30.15,NW,315,1.6,4.9,39,0.00,,---,0.04,VWS V14.01,2013-02-07 22:09:00,
2013-02-07 14:14:00,63.1,37.8,30.15,WSW,248,2.7,3.6,39,0.00,,---,0.04,VWS V14.01,2013-02-07 22:14:00,
2013-02-07 14:19:00,63.9,37.8,30.15,WSW,248,2.5,3.8,38,0.00,,---,0.04,VWS V14.01,2013-02-07 22:19:00,
2013-02-07 14:25:00,63.1,37.8,30.12,West,270,4.0,4.0,39,0.00,,---,0.04,VWS V14.01,2013-02-07 22:25:00,
2013-02-07 14:30:00,63.3,37.3,30.12,NNW,338,1.1,3.8,38,0.00,,---,0.04,VWS V14.01,2013-02-07 22:30:00,
2013-02-07 14:36:00,64.2,36.7,30.12,WSW,248,3.6,4.3,36,0.00,,---,0.04,VWS V14.01,2013-02-07 22:36:00,
2013-02-07 14:42:00,63.7,35.5,30.12,SSW,202,5.4,8.7,35,0.00,,---,0.04,VWS V14.01,2013-02-07 22:42:00,
2013-02-07 14:47:00,63.1,36.5,30.12,WSW,248,2.9,3.8,37,0.00,,---,0.04,VWS V14.01,2013-02-07 22:47:00,
2013-02-07 14:53:00,63.1,36.5,30.12,SSW,202,2.7,3.6,37,0.00,,---,0.04,VWS V14.01,2013-02-07 22:53:00,
2013-02-07 14:59:00,63.5,36.1,30.12,SW,225,7.4,7.4,36,0.00,,---,0.04,VWS V14.01,2013-02-07 22:59:00,
2013-02-07 15:04:00,62.1,34.8,30.12,North,0,0.9,2.7,36,0.00,,---,0.04,VWS V14.01,2013-02-07 23:04:00,
2013-02-07 15:10:00,62.2,35.0,30.12,NNW,338,1.1,2.9,36,0.00,,---,0.04,VWS V14.01,2013-02-07 23:10:00,
2013-02-07 15:15:00,62.2,35.0,30.12,SSW,202,2.9,3.6,36,0.00,,---,0.04,VWS V14.01,2013-02-07 23:15:00,
2013-02-07 15:21:00,62.6,35.3,30.12,SSW,202,3.4,3.8,36,0.00,,---,0.04,VWS V14.01,2013-02-07 23:21:00,
2013-02-07 15:26:00,61.3,33.5,30.12,SSW,202,1.6,4.0,35,0.00,,---,0.04,VWS V14.01,2013-02-07 23:26:00,
2013-02-07 15:31:00,61.0,33.9,30.12,WNW,292,4.3,5.6,36,0.00,,---,0.04,VWS V14.01,2013-02-07 23:31:00,
2013-02-07 15:37:00,60.6,34.2,30.12,WSW,248,3.6,4.7,37,0.00,,---,0.04,VWS V14.01,2013-02-07 23:37:00,
2013-02-07 15:42:00,60.1,33.8,30.12,WSW,248,5.4,5.4,37,0.00,,---,0.04,VWS V14.01,2013-02-07 23:42:00,
2013-02-07 15:48:00,60.1,33.8,30.12,West,270,2.0,6.5,37,0.00,,---,0.04,VWS V14.01,2013-02-07 23:48:00,
2013-02-07 15:53:00,59.7,33.4,30.12,SSW,202,2.9,3.6,37,0.00,,---,0.04,VWS V14.01,2013-02-07 23:53:00,
2013-02-07 15:59:00,59.9,34.2,30.12,SW,225,2.0,3.1,38,0.00,,---,0.04,VWS V14.01,2013-02-07 23:59:00,
2013-02-07 16:04:00,60.1,33.8,30.12,WSW,248,1.3,3.6,37,0.00,,---,0.04,VWS V14.01,2013-02-08 00:04:00,
2013-02-07 16:09:00,60.1,33.8,30.12,NW,315,2.0,2.9,37,0.00,,---,0.04,VWS V14.01,2013-02-08 00:09:00,
2013-02-07 16:14:00,59.9,33.6,30.12,WSW,248,3.4,5.4,37,0.00,,---,0.04,VWS V14.01,2013-02-08 00:14:00,
2013-02-07 16:20:00,59.5,33.9,30.12,West,270,1.1,1.6,38,0.00,,---,0.04,VWS V14.01,2013-02-08 00:20:00,
2013-02-07 16:25:00,59.5,33.3,30.12,WNW,292,2.5,3.4,37,0.00,,---,0.04,VWS V14.01,2013-02-08 00:25:00,
2013-02-07 16:31:00,59.0,32.8,30.12,SSW,202,2.2,4.0,37,0.00,,---,0.04,VWS V14.01,2013-02-08 00:31:00,
2013-02-07 16:37:00,58.1,32.7,30.12,SW,225,1.6,2.5,38,0.00,,---,0.04,VWS V14.01,2013-02-08 00:37:00,
2013-02-07 16:42:00,58.5,33.0,30.12,SSW,202,2.9,3.6,38,0.00,,---,0.04,VWS V14.01,2013-02-08 00:42:00,
2013-02-07 16:48:00,57.6,32.8,30.12,North,0,2.5,2.9,39,0.00,,---,0.04,VWS V14.01,2013-02-08 00:48:00,
2013-02-07 16:54:00,56.3,32.3,30.12,SW,225,1.3,3.4,40,0.00,,---,0.04,VWS V14.01,2013-02-08 00:54:00,
2013-02-07 16:59:00,55.0,32.4,30.12,NW,315,4.7,5.8,42,0.00,,---,0.04,VWS V14.01,2013-02-08 00:59:00,
2013-02-07 17:04:00,52.9,31.0,30.12,ENE,68,2.0,4.7,43,0.00,,---,0.04,VWS V14.01,2013-02-08 01:04:00,
2013-02-07 17:09:00,51.4,31.4,30.09,WSW,248,1.6,2.0,46,0.00,,---,0.04,VWS V14.01,2013-02-08 01:09:00,
2013-02-07 17:15:00,50.4,31.4,30.09,West,270,0.0,2.2,48,0.00,,---,0.04,VWS V14.01,2013-02-08 01:15:00,
2013-02-07 17:20:00,49.8,31.9,30.09,WSW,248,0.0,2.5,50,0.00,,---,0.04,VWS V14.01,2013-02-08 01:20:00,
2013-02-07 17:25:00,49.1,31.8,30.12,WSW,248,0.0,2.2,51,0.00,,---,0.04,VWS V14.01,2013-02-08 01:25:00,
2013-02-07 17:30:00,48.6,31.8,30.12,NNE,22,0.0,2.0,52,0.00,,---,0.04,VWS V14.01,2013-02-08 01:30:00,
2013-02-07 17:35:00,48.2,32.3,30.12,SW,225,0.0,0.0,54,0.00,,---,0.04,VWS V14.01,2013-02-08 01:35:00,
2013-02-07 17:40:00,47.7,32.8,30.12,SSW,202,2.9,2.9,56,0.00,,---,0.04,VWS V14.01,2013-02-08 01:40:00,
2013-02-07 17:45:00,47.3,33.7,30.12,SSE,158,0.0,4.0,59,0.00,,---,0.04,VWS V14.01,2013-02-08 01:45:00,
2013-02-07 17:50:00,47.1,33.5,30.12,WSW,248,1.6,1.6,59,0.00,,---,0.04,VWS V14.01,2013-02-08 01:50:00,
2013-02-07 17:55:00,46.8,34.0,30.12,NNW,338,0.0,3.6,61,0.00,,---,0.04,VWS V14.01,2013-02-08 01:55:00,
2013-02-07 18:01:00,46.6,34.3,30.12,SSW,202,2.0,2.0,62,0.00,,---,0.04,VWS V14.01,2013-02-08 02:01:00,
2013-02-07 18:06:00,46.4,34.1,30.12,WSW,248,0.0,0.9,62,0.00,,---,0.04,VWS V14.01,2013-02-08 02:06:00,
2013-02-07 18:12:00,45.7,33.8,30.12,WNW,292,1.3,2.9,63,0.00,,---,0.04,VWS V14.01,2013-02-08 02:12:00,
2013-02-07 18:17:00,45.3,33.5,30.12,WSW,248,0.0,1.6,63,0.00,,---,0.04,VWS V14.01,2013-02-08 02:17:00,
2013-02-07 18:23:00,45.1,33.7,30.12,NNW,338,0.0,0.0,64,0.00,,---,0.04,VWS V14.01,2013-02-08 02:23:00,
2013-02-07 18:29:00,45.0,33.9,30.12,North,0,2.5,2.5,65,0.00,,---,0.04,VWS V14.01,2013-02-08 02:29:00,
2013-02-07 18:34:00,44.8,34.1,30.12,SW,225,2.5,2.7,66,0.00,,---,0.04,VWS V14.01,2013-02-08 02:34:00,
2013-02-07 18:40:00,44.8,34.5,30.12,NW,315,0.0,2.0,67,0.00,,---,0.04,VWS V14.01,2013-02-08 02:40:00,
2013-02-07 18:45:00,44.4,34.2,30.12,East,90,0.0,0.0,67,0.00,,---,0.04,VWS V14.01,2013-02-08 02:45:00,
2013-02-07 18:51:00,44.1,33.8,30.12,ENE,68,0.0,0.0,67,0.00,,---,0.04,VWS V14.01,2013-02-08 02:51:00,
2013-02-07 18:57:00,43.7,33.5,30.12,ENE,68,0.0,0.0,67,0.00,,---,0.04,VWS V14.01,2013-02-08 02:57:00,
2013-02-07 19:02:00,43.5,33.3,30.12,NE,45,0.0,1.3,67,0.00,,---,0.04,VWS V14.01,2013-02-08 03:02:00,
2013-02-07 19:07:00,43.5,33.7,30.12,WSW,248,0.0,0.0,68,0.00,,---,0.04,VWS V14.01,2013-02-08 03:07:00,
2013-02-07 19:12:00,43.2,33.3,30.12,NNW,338,0.0,0.0,68,0.00,,---,0.04,VWS V14.01,2013-02-08 03:12:00,
2013-02-07 19:18:00,43.0,33.2,30.12,NW,315,0.0,0.0,68,0.00,,---,0.04,VWS V14.01,2013-02-08 03:18:00,
2013-02-07 19:24:00,42.4,33.0,30.12,NW,315,0.0,0.0,69,0.00,,---,0.04,VWS V14.01,2013-02-08 03:24:00,
2013-02-07 19:30:00,42.4,33.4,30.12,NNW,338,0.0,0.0,70,0.00,,---,0.04,VWS V14.01,2013-02-08 03:30:00,
2013-02-07 19:36:00,42.4,33.4,30.12,NNW,338,0.0,0.0,70,0.00,,---,0.04,VWS V14.01,2013-02-08 03:36:00,
2013-02-07 19:41:00,42.6,33.9,30.12,North,0,0.0,1.3,71,0.00,,---,0.04,VWS V14.01,2013-02-08 03:41:00,
2013-02-07 19:47:00,42.6,34.2,30.12,North,0,0.0,0.0,72,0.00,,---,0.04,VWS V14.01,2013-02-08 03:47:00,
2013-02-07 19:53:00,42.6,34.2,30.12,North,0,0.0,0.0,72,0.00,,---,0.04,VWS V14.01,2013-02-08 03:53:00,
2013-02-07 19:58:00,42.6,34.2,30.12,North,0,0.0,0.0,72,0.00,,---,0.04,VWS V14.01,2013-02-08 03:58:00,
2013-02-07 20:04:00,43.2,34.8,30.12,North,0,0.0,0.0,72,0.00,,---,0.04,VWS V14.01,2013-02-08 04:04:00,
2013-02-07 20:09:00,43.3,35.3,30.12,WSW,248,1.6,1.6,73,0.00,,---,0.04,VWS V14.01,2013-02-08 04:09:00,
2013-02-07 20:15:00,44.1,37.7,30.12,WSW,248,1.1,2.7,78,0.00,,---,0.04,VWS V14.01,2013-02-08 04:15:00,
2013-02-07 20:21:00,43.7,38.6,30.12,SSW,202,2.5,2.5,82,0.00,,---,0.04,VWS V14.01,2013-02-08 04:21:00,
2013-02-07 20:26:00,43.5,38.4,30.12,SW,225,0.0,2.0,82,0.00,,---,0.04,VWS V14.01,2013-02-08 04:26:00,
2013-02-07 20:32:00,43.3,38.8,30.12,NNW,338,2.2,2.2,84,0.04,,---,0.08,VWS V14.01,2013-02-08 04:32:00,
2013-02-07 20:37:00,43.0,39.1,30.12,NW,315,1.1,3.8,86,0.04,,---,0.08,VWS V14.01,2013-02-08 04:37:00,
2013-02-07 20:43:00,42.8,38.3,30.12,NNE,22,1.6,2.9,84,0.04,,---,0.08,VWS V14.01,2013-02-08 04:43:00,
2013-02-07 20:48:00,42.8,38.6,30.12,SSE,158,0.0,0.0,85,0.08,,---,0.12,VWS V14.01,2013-02-08 04:48:00,
2013-02-07 20:54:00,42.4,38.0,30.12,SSW,202,0.0,0.0,84,0.08,,---,0.12,VWS V14.01,2013-02-08 04:54:00,
2013-02-07 20:59:00,42.3,37.8,30.12,ESE,112,0.0,0.0,84,0.08,,---,0.12,VWS V14.01,2013-02-08 04:59:00,
2013-02-07 21:00:00,42.3,37.8,30.12,ENE,68,0.0,0.0,84,0.08,,---,0.12,VWS V14.01,2013-02-08 05:00:00,
2013-02-07 21:01:00,42.3,37.8,30.12,ENE,68,0.0,0.0,84,0.08,,---,0.12,VWS V14.01,2013-02-08 05:01:00,
2013-02-07 21:02:00,42.3,37.8,30.12,ENE,68,0.0,0.0,84,0.08,,---,0.12,VWS V14.01,2013-02-08 05:02:00,
2013-02-07 21:04:00,42.3,37.8,30.12,ENE,68,0.0,0.0,84,0.08,,---,0.12,VWS V14.01,2013-02-08 05:04:00,
2013-02-07 21:10:00,42.1,37.6,30.09,ENE,68,0.0,0.9,84,0.08,,---,0.12,VWS V14.01,2013-02-08 05:10:00,
2013-02-07 21:15:00,42.1,37.6,30.09,ESE,112,0.0,0.0,84,0.08,,---,0.12,VWS V14.01,2013-02-08 05:15:00,
2013-02-07 21:21:00,41.9,37.7,30.09,ESE,112,0.0,0.0,85,0.08,,---,0.12,VWS V14.01,2013-02-08 05:21:00,
2013-02-07 21:26:00,41.9,37.7,30.09,ESE,112,0.0,0.0,85,0.08,,---,0.12,VWS V14.01,2013-02-08 05:26:00,
2013-02-07 21:32:00,41.7,37.5,30.09,SSW,202,0.0,0.0,85,0.08,,---,0.12,VWS V14.01,2013-02-08 05:32:00,
2013-02-07 21:37:00,41.7,37.5,30.09,SSW,202,0.0,0.0,85,0.04,,---,0.12,VWS V14.01,2013-02-08 05:37:00,
2013-02-07 21:43:00,41.9,38.0,30.09,SSW,202,0.0,1.3,86,0.04,,---,0.12,VWS V14.01,2013-02-08 05:43:00,
2013-02-07 21:49:00,42.1,38.5,30.09,South,180,0.0,0.0,87,0.00,,---,0.12,VWS V14.01,2013-02-08 05:49:00,
2013-02-07 21:54:00,42.1,38.5,30.06,South,180,0.0,1.6,87,0.00,,---,0.12,VWS V14.01,2013-02-08 05:54:00,
2013-02-07 22:00:00,42.1,38.5,30.06,West,270,0.0,0.0,87,0.00,,---,0.12,VWS V14.01,2013-02-08 06:00:00,
2013-02-07 22:06:00,42.1,38.8,30.06,SSW,202,0.0,0.0,88,0.00,,---,0.12,VWS V14.01,2013-02-08 06:06:00,
2013-02-07 22:11:00,42.1,38.8,30.06,ENE,68,0.0,0.0,88,0.00,,---,0.12,VWS V14.01,2013-02-08 06:11:00,
2013-02-07 22:17:00,41.9,38.6,30.06,East,90,0.0,0.0,88,0.00,,---,0.12,VWS V14.01,2013-02-08 06:17:00,
2013-02-07 22:22:00,41.7,38.4,30.03,ESE,112,0.0,1.3,88,0.00,,---,0.12,VWS V14.01,2013-02-08 06:22:00,
2013-02-07 22:28:00,41.5,38.3,30.03,ESE,112,0.0,0.0,88,0.00,,---,0.12,VWS V14.01,2013-02-08 06:28:00,
2013-02-07 22:34:00,41.2,37.9,30.03,ESE,112,0.0,0.0,88,0.00,,---,0.12,VWS V14.01,2013-02-08 06:34:00,
2013-02-07 22:39:00,41.0,37.7,30.06,ESE,112,0.0,0.0,88,0.00,,---,0.12,VWS V14.01,2013-02-08 06:39:00,
2013-02-07 22:45:00,40.6,37.7,30.06,ENE,68,0.0,0.0,89,0.00,,---,0.12,VWS V14.01,2013-02-08 06:45:00,
2013-02-07 22:50:00,40.3,37.3,30.06,ENE,68,0.0,0.0,89,0.00,,---,0.12,VWS V14.01,2013-02-08 06:50:00,
2013-02-07 22:56:00,39.9,37.0,30.03,ENE,68,0.0,0.0,89,0.00,,---,0.12,VWS V14.01,2013-02-08 06:56:00,
2013-02-07 23:02:00,39.7,36.8,30.03,ENE,68,0.0,0.0,89,0.00,,---,0.12,VWS V14.01,2013-02-08 07:02:00,
2013-02-07 23:07:00,39.6,36.6,30.03,ENE,68,0.0,0.0,89,0.00,,---,0.12,VWS V14.01,2013-02-08 07:07:00,
2013-02-07 23:13:00,39.2,36.5,30.03,ENE,68,0.0,0.0,90,0.00,,---,0.12,VWS V14.01,2013-02-08 07:13:00,
2013-02-07 23:18:00,39.0,36.3,30.03,ENE,68,0.0,0.0,90,0.00,,---,0.12,VWS V14.01,2013-02-08 07:18:00,
2013-02-07 23:23:00,39.0,36.6,30.03,ENE,68,0.0,0.0,91,0.00,,---,0.12,VWS V14.01,2013-02-08 07:23:00,
2013-02-07 23:28:00,39.0,36.6,30.03,ENE,68,0.0,0.0,91,0.00,,---,0.12,VWS V14.01,2013-02-08 07:28:00,
2013-02-07 23:34:00,39.0,36.9,30.03,NNE,22,0.0,0.0,92,0.00,,---,0.12,VWS V14.01,2013-02-08 07:34:00,
2013-02-07 23:39:00,38.8,36.4,30.06,NNE,22,0.0,0.0,91,0.00,,---,0.12,VWS V14.01,2013-02-08 07:39:00,
2013-02-07 23:45:00,38.7,36.3,30.06,NNE,22,0.0,0.0,91,0.00,,---,0.12,VWS V14.01,2013-02-08 07:45:00,
2013-02-07 23:51:00,38.5,36.1,30.06,NNE,22,0.0,0.0,91,0.00,,---,0.12,VWS V14.01,2013-02-08 07:51:00,
2013-02-07 23:56:00,38.5,36.4,30.06,NNE,22,0.0,0.0,92,0.00,,---,0.12,VWS V14.01,2013-02-08 07:56:00,